sensor_id;sensor_type;location;lat;lon;timestamp;temperature;humidity
55711;DHT22;41612;51.994;5.880;2023-02-26T00:00:35;2.80;86.10
55711;DHT22;41612;51.994;5.880;2023-02-26T00:03:04;2.70;86.20
55711;DHT22;41612;51.994;5.880;2023-02-26T00:05:30;2.60;86.40
55711;DHT22;41612;51.994;5.880;2023-02-26T00:07:56;2.50;86.60
55711;DHT22;41612;51.994;5.880;2023-02-26T00:10:27;2.50;86.80
55711;DHT22;41612;51.994;5.880;2023-02-26T00:12:56;2.40;87.00
55711;DHT22;41612;51.994;5.880;2023-02-26T00:15:25;2.40;87.20
55711;DHT22;41612;51.994;5.880;2023-02-26T00:18:01;2.40;87.30
55711;DHT22;41612;51.994;5.880;2023-02-26T00:20:29;2.40;87.30
55711;DHT22;41612;51.994;5.880;2023-02-26T00:23:01;2.30;87.30
55711;DHT22;41612;51.994;5.880;2023-02-26T00:25:27;2.30;87.30
55711;DHT22;41612;51.994;5.880;2023-02-26T00:27:59;2.30;87.30
55711;DHT22;41612;51.994;5.880;2023-02-26T00:30:28;2.30;87.30
55711;DHT22;41612;51.994;5.880;2023-02-26T00:33:08;2.30;87.30
55711;DHT22;41612;51.994;5.880;2023-02-26T00:35:44;2.20;87.50
55711;DHT22;41612;51.994;5.880;2023-02-26T00:38:20;2.20;87.70
55711;DHT22;41612;51.994;5.880;2023-02-26T00:40:52;2.20;87.70
55711;DHT22;41612;51.994;5.880;2023-02-26T00:43:24;2.10;87.80
55711;DHT22;41612;51.994;5.880;2023-02-26T00:54:19;2.00;87.90
55711;DHT22;41612;51.994;5.880;2023-02-26T00:56:56;2.00;87.90
55711;DHT22;41612;51.994;5.880;2023-02-26T00:59:28;2.00;88.00
55711;DHT22;41612;51.994;5.880;2023-02-26T01:01:59;2.00;88.10
55711;DHT22;41612;51.994;5.880;2023-02-26T01:04:31;1.90;88.10
55711;DHT22;41612;51.994;5.880;2023-02-26T01:07:00;1.90;88.10
55711;DHT22;41612;51.994;5.880;2023-02-26T01:09:36;1.90;88.20
55711;DHT22;41612;51.994;5.880;2023-02-26T01:12:10;1.90;88.20
55711;DHT22;41612;51.994;5.880;2023-02-26T01:14:40;1.90;88.20
55711;DHT22;41612;51.994;5.880;2023-02-26T01:17:38;1.90;88.10
55711;DHT22;41612;51.994;5.880;2023-02-26T01:20:19;1.90;88.10
55711;DHT22;41612;51.994;5.880;2023-02-26T01:23:10;1.90;88.10
55711;DHT22;41612;51.994;5.880;2023-02-26T01:28:31;1.80;88.10
55711;DHT22;41612;51.994;5.880;2023-02-26T01:31:04;1.80;88.10
55711;DHT22;41612;51.994;5.880;2023-02-26T01:36:43;1.80;88.20
55711;DHT22;41612;51.994;5.880;2023-02-26T01:42:21;1.70;88.30
55711;DHT22;41612;51.994;5.880;2023-02-26T01:45:22;1.70;88.30
55711;DHT22;41612;51.994;5.880;2023-02-26T01:47:56;1.70;88.30
55711;DHT22;41612;51.994;5.880;2023-02-26T01:50:29;1.70;88.30
55711;DHT22;41612;51.994;5.880;2023-02-26T01:53:19;1.70;88.30
55711;DHT22;41612;51.994;5.880;2023-02-26T01:55:58;1.70;88.30
55711;DHT22;41612;51.994;5.880;2023-02-26T01:58:31;1.60;88.30
55711;DHT22;41612;51.994;5.880;2023-02-26T02:01:00;1.60;88.40
55711;DHT22;41612;51.994;5.880;2023-02-26T02:03:27;1.50;88.40
55711;DHT22;41612;51.994;5.880;2023-02-26T02:06:09;1.60;88.50
55711;DHT22;41612;51.994;5.880;2023-02-26T02:08:45;1.50;88.50
55711;DHT22;41612;51.994;5.880;2023-02-26T02:11:17;1.50;88.50
55711;DHT22;41612;51.994;5.880;2023-02-26T02:33:15;1.30;88.80
55711;DHT22;41612;51.994;5.880;2023-02-26T02:35:54;1.30;88.80
55711;DHT22;41612;51.994;5.880;2023-02-26T02:38:33;1.30;88.90
55711;DHT22;41612;51.994;5.880;2023-02-26T02:43:59;1.30;88.80
55711;DHT22;41612;51.994;5.880;2023-02-26T02:46:37;1.20;88.80
55711;DHT22;41612;51.994;5.880;2023-02-26T02:49:30;1.20;88.80
55711;DHT22;41612;51.994;5.880;2023-02-26T02:58:02;1.20;89.00
55711;DHT22;41612;51.994;5.880;2023-02-26T03:00:54;1.10;89.00
55711;DHT22;41612;51.994;5.880;2023-02-26T03:03:37;1.00;89.00
55711;DHT22;41612;51.994;5.880;2023-02-26T03:06:07;1.00;89.00
55711;DHT22;41612;51.994;5.880;2023-02-26T03:08:40;1.00;89.10
55711;DHT22;41612;51.994;5.880;2023-02-26T03:11:16;1.00;89.10
55711;DHT22;41612;51.994;5.880;2023-02-26T03:13:50;1.00;89.10
55711;DHT22;41612;51.994;5.880;2023-02-26T03:17:30;1.00;89.20
55711;DHT22;41612;51.994;5.880;2023-02-26T03:20:02;1.00;89.20
55711;DHT22;41612;51.994;5.880;2023-02-26T03:25:54;0.90;89.20
55711;DHT22;41612;51.994;5.880;2023-02-26T03:28:32;0.90;89.20
55711;DHT22;41612;51.994;5.880;2023-02-26T03:31:32;0.90;89.20
55711;DHT22;41612;51.994;5.880;2023-02-26T03:37:08;0.80;89.20
55711;DHT22;41612;51.994;5.880;2023-02-26T03:39:45;0.80;89.20
55711;DHT22;41612;51.994;5.880;2023-02-26T03:42:42;0.80;89.20
55711;DHT22;41612;51.994;5.880;2023-02-26T03:45:23;0.80;89.20
55711;DHT22;41612;51.994;5.880;2023-02-26T03:47:54;0.80;89.30
55711;DHT22;41612;51.994;5.880;2023-02-26T03:50:37;0.70;89.20
55711;DHT22;41612;51.994;5.880;2023-02-26T03:53:30;0.80;89.20
55711;DHT22;41612;51.994;5.880;2023-02-26T03:56:35;0.70;89.20
55711;DHT22;41612;51.994;5.880;2023-02-26T03:59:20;0.70;89.20
55711;DHT22;41612;51.994;5.880;2023-02-26T04:02:10;0.70;89.20
55711;DHT22;41612;51.994;5.880;2023-02-26T04:04:59;0.70;89.20
55711;DHT22;41612;51.994;5.880;2023-02-26T04:07:26;0.60;89.30
55711;DHT22;41612;51.994;5.880;2023-02-26T04:09:52;0.60;89.30
55711;DHT22;41612;51.994;5.880;2023-02-26T04:12:26;0.60;89.30
55711;DHT22;41612;51.994;5.880;2023-02-26T04:14:54;0.60;89.30
55711;DHT22;41612;51.994;5.880;2023-02-26T04:17:30;0.60;89.30
55711;DHT22;41612;51.994;5.880;2023-02-26T04:19:57;0.60;89.30
55711;DHT22;41612;51.994;5.880;2023-02-26T04:22:23;0.60;89.30
55711;DHT22;41612;51.994;5.880;2023-02-26T04:24:52;0.60;89.20
55711;DHT22;41612;51.994;5.880;2023-02-26T04:27:23;0.60;89.20
55711;DHT22;41612;51.994;5.880;2023-02-26T04:29:51;0.60;89.20
55711;DHT22;41612;51.994;5.880;2023-02-26T04:32:20;0.50;89.20
55711;DHT22;41612;51.994;5.880;2023-02-26T04:34:47;0.60;89.30
55711;DHT22;41612;51.994;5.880;2023-02-26T04:37:15;0.50;89.30
55711;DHT22;41612;51.994;5.880;2023-02-26T04:39:41;0.50;89.20
55711;DHT22;41612;51.994;5.880;2023-02-26T04:42:09;0.50;89.20
55711;DHT22;41612;51.994;5.880;2023-02-26T04:44:37;0.50;89.30
55711;DHT22;41612;51.994;5.880;2023-02-26T04:47:03;0.50;89.30
55711;DHT22;41612;51.994;5.880;2023-02-26T04:49:30;0.50;89.30
55711;DHT22;41612;51.994;5.880;2023-02-26T04:51:59;0.50;89.20
55711;DHT22;41612;51.994;5.880;2023-02-26T04:54:27;0.50;89.20
55711;DHT22;41612;51.994;5.880;2023-02-26T04:56:56;0.50;89.20
55711;DHT22;41612;51.994;5.880;2023-02-26T04:59:24;0.50;89.20
55711;DHT22;41612;51.994;5.880;2023-02-26T05:01:50;0.50;89.20
55711;DHT22;41612;51.994;5.880;2023-02-26T05:04:16;0.40;89.20
55711;DHT22;41612;51.994;5.880;2023-02-26T05:06:49;0.40;89.10
55711;DHT22;41612;51.994;5.880;2023-02-26T05:09:17;0.40;89.10
55711;DHT22;41612;51.994;5.880;2023-02-26T05:11:46;0.40;89.10
55711;DHT22;41612;51.994;5.880;2023-02-26T05:14:15;0.40;89.00
55711;DHT22;41612;51.994;5.880;2023-02-26T05:16:41;0.40;89.00
55711;DHT22;41612;51.994;5.880;2023-02-26T05:19:06;0.30;89.00
55711;DHT22;41612;51.994;5.880;2023-02-26T05:21:35;0.30;89.00
55711;DHT22;41612;51.994;5.880;2023-02-26T05:24:03;0.30;89.00
55711;DHT22;41612;51.994;5.880;2023-02-26T05:26:32;0.30;89.10
55711;DHT22;41612;51.994;5.880;2023-02-26T05:29:04;0.30;89.00
55711;DHT22;41612;51.994;5.880;2023-02-26T05:31:35;0.30;89.00
55711;DHT22;41612;51.994;5.880;2023-02-26T05:34:01;0.30;89.00
55711;DHT22;41612;51.994;5.880;2023-02-26T05:36:30;0.30;89.00
55711;DHT22;41612;51.994;5.880;2023-02-26T05:38:58;0.30;89.00
55711;DHT22;41612;51.994;5.880;2023-02-26T05:41:29;0.30;89.10
55711;DHT22;41612;51.994;5.880;2023-02-26T05:43:55;0.30;89.00
55711;DHT22;41612;51.994;5.880;2023-02-26T05:46:23;0.20;89.00
55711;DHT22;41612;51.994;5.880;2023-02-26T05:48:55;0.20;89.00
55711;DHT22;41612;51.994;5.880;2023-02-26T05:51:23;0.20;88.90
55711;DHT22;41612;51.994;5.880;2023-02-26T05:53:52;0.20;89.00
55711;DHT22;41612;51.994;5.880;2023-02-26T05:56:21;0.20;88.90
55711;DHT22;41612;51.994;5.880;2023-02-26T05:58:50;0.20;88.90
55711;DHT22;41612;51.994;5.880;2023-02-26T06:01:19;0.20;88.80
55711;DHT22;41612;51.994;5.880;2023-02-26T06:03:49;0.20;88.90
55711;DHT22;41612;51.994;5.880;2023-02-26T06:06:15;0.20;88.80
55711;DHT22;41612;51.994;5.880;2023-02-26T06:08:45;0.20;88.80
55711;DHT22;41612;51.994;5.880;2023-02-26T06:11:10;0.20;88.80
55711;DHT22;41612;51.994;5.880;2023-02-26T06:13:40;0.20;88.80
55711;DHT22;41612;51.994;5.880;2023-02-26T06:16:06;0.20;88.80
55711;DHT22;41612;51.994;5.880;2023-02-26T06:18:31;0.10;88.80
55711;DHT22;41612;51.994;5.880;2023-02-26T06:21:04;0.10;88.80
55711;DHT22;41612;51.994;5.880;2023-02-26T06:23:29;0.10;88.70
55711;DHT22;41612;51.994;5.880;2023-02-26T06:25:58;0.10;88.80
55711;DHT22;41612;51.994;5.880;2023-02-26T06:28:26;0.10;88.80
55711;DHT22;41612;51.994;5.880;2023-02-26T06:30:55;0.10;88.80
55711;DHT22;41612;51.994;5.880;2023-02-26T06:33:23;0.10;88.70
55711;DHT22;41612;51.994;5.880;2023-02-26T06:35:56;0.10;88.70
55711;DHT22;41612;51.994;5.880;2023-02-26T06:38:27;0.10;88.70
55711;DHT22;41612;51.994;5.880;2023-02-26T06:40:56;0.10;88.70
55711;DHT22;41612;51.994;5.880;2023-02-26T06:43:24;0.10;88.70
55711;DHT22;41612;51.994;5.880;2023-02-26T06:45:55;0.10;88.60
55711;DHT22;41612;51.994;5.880;2023-02-26T06:48:24;0.10;88.50
55711;DHT22;41612;51.994;5.880;2023-02-26T06:50:50;0.00;88.50
55711;DHT22;41612;51.994;5.880;2023-02-26T06:53:19;0.10;88.50
55711;DHT22;41612;51.994;5.880;2023-02-26T06:55:50;0.10;88.50
55711;DHT22;41612;51.994;5.880;2023-02-26T06:58:19;0.10;88.40
55711;DHT22;41612;51.994;5.880;2023-02-26T07:00:51;0.20;88.40
55711;DHT22;41612;51.994;5.880;2023-02-26T07:03:17;0.10;88.30
55711;DHT22;41612;51.994;5.880;2023-02-26T07:05:44;0.10;88.20
55711;DHT22;41612;51.994;5.880;2023-02-26T07:08:16;0.20;88.10
55711;DHT22;41612;51.994;5.880;2023-02-26T07:10:47;0.20;88.10
55711;DHT22;41612;51.994;5.880;2023-02-26T07:13:17;0.20;87.90
55711;DHT22;41612;51.994;5.880;2023-02-26T07:15:45;0.20;87.70
55711;DHT22;41612;51.994;5.880;2023-02-26T07:18:11;0.30;87.60
55711;DHT22;41612;51.994;5.880;2023-02-26T07:20:40;0.30;87.40
55711;DHT22;41612;51.994;5.880;2023-02-26T07:23:06;0.30;87.20
55711;DHT22;41612;51.994;5.880;2023-02-26T07:25:32;0.30;87.20
55711;DHT22;41612;51.994;5.880;2023-02-26T07:27:57;0.40;86.90
55711;DHT22;41612;51.994;5.880;2023-02-26T07:30:24;0.50;86.70
55711;DHT22;41612;51.994;5.880;2023-02-26T07:32:53;0.50;86.50
55711;DHT22;41612;51.994;5.880;2023-02-26T07:35:19;0.60;86.20
55711;DHT22;41612;51.994;5.880;2023-02-26T07:37:45;0.60;86.10
55711;DHT22;41612;51.994;5.880;2023-02-26T07:40:12;0.60;85.90
55711;DHT22;41612;51.994;5.880;2023-02-26T07:42:38;0.70;86.00
55711;DHT22;41612;51.994;5.880;2023-02-26T07:45:04;0.70;85.80
55711;DHT22;41612;51.994;5.880;2023-02-26T07:47:30;0.80;85.60
55711;DHT22;41612;51.994;5.880;2023-02-26T07:49:56;0.80;85.40
55711;DHT22;41612;51.994;5.880;2023-02-26T07:52:22;0.90;85.30
55711;DHT22;41612;51.994;5.880;2023-02-26T07:54:47;0.90;85.00
55711;DHT22;41612;51.994;5.880;2023-02-26T07:57:13;1.10;85.10
55711;DHT22;41612;51.994;5.880;2023-02-26T07:59:39;1.20;84.70
55711;DHT22;41612;51.994;5.880;2023-02-26T08:02:05;1.20;84.20
55711;DHT22;41612;51.994;5.880;2023-02-26T08:04:31;1.30;84.00
55711;DHT22;41612;51.994;5.880;2023-02-26T08:06:58;1.30;83.70
55711;DHT22;41612;51.994;5.880;2023-02-26T08:09:25;1.40;83.40
55711;DHT22;41612;51.994;5.880;2023-02-26T08:11:51;1.40;83.50
55711;DHT22;41612;51.994;5.880;2023-02-26T08:14:17;1.50;83.00
55711;DHT22;41612;51.994;5.880;2023-02-26T08:16:43;1.60;82.90
55711;DHT22;41612;51.994;5.880;2023-02-26T08:19:09;1.70;82.10
55711;DHT22;41612;51.994;5.880;2023-02-26T08:21:35;1.80;82.00
55711;DHT22;41612;51.994;5.880;2023-02-26T08:24:01;1.80;81.60
55711;DHT22;41612;51.994;5.880;2023-02-26T08:26:27;1.90;81.50
55711;DHT22;41612;51.994;5.880;2023-02-26T08:28:53;2.00;81.10
55711;DHT22;41612;51.994;5.880;2023-02-26T08:31:19;2.00;80.80
55711;DHT22;41612;51.994;5.880;2023-02-26T08:33:45;2.00;80.90
55711;DHT22;41612;51.994;5.880;2023-02-26T08:36:11;2.00;80.70
55711;DHT22;41612;51.994;5.880;2023-02-26T08:38:37;2.10;80.60
55711;DHT22;41612;51.994;5.880;2023-02-26T08:41:03;2.10;80.30
55711;DHT22;41612;51.994;5.880;2023-02-26T08:43:29;2.20;79.90
55711;DHT22;41612;51.994;5.880;2023-02-26T08:45:55;2.20;80.00
55711;DHT22;41612;51.994;5.880;2023-02-26T08:48:22;2.20;79.90
55711;DHT22;41612;51.994;5.880;2023-02-26T08:50:48;2.20;79.50
55711;DHT22;41612;51.994;5.880;2023-02-26T08:53:14;2.30;79.30
55711;DHT22;41612;51.994;5.880;2023-02-26T08:55:40;2.30;79.50
55711;DHT22;41612;51.994;5.880;2023-02-26T08:58:09;2.30;80.00
55711;DHT22;41612;51.994;5.880;2023-02-26T09:03:16;2.50;79.60
55711;DHT22;41612;51.994;5.880;2023-02-26T09:05:44;2.60;79.10
55711;DHT22;41612;51.994;5.880;2023-02-26T09:08:17;2.70;79.20
55711;DHT22;41612;51.994;5.880;2023-02-26T09:28:21;3.50;75.70
55711;DHT22;41612;51.994;5.880;2023-02-26T11:38:00;11.20;42.80
55711;DHT22;41612;51.994;5.880;2023-02-26T11:40:39;11.80;45.50
55711;DHT22;41612;51.994;5.880;2023-02-26T11:43:20;12.50;43.60
55711;DHT22;41612;51.994;5.880;2023-02-26T11:45:51;12.70;42.30
55711;DHT22;41612;51.994;5.880;2023-02-26T11:48:25;12.50;42.40
55711;DHT22;41612;51.994;5.880;2023-02-26T11:51:00;12.30;43.20
55711;DHT22;41612;51.994;5.880;2023-02-26T11:53:40;11.70;43.70
55711;DHT22;41612;51.994;5.880;2023-02-26T11:56:13;11.00;45.20
55711;DHT22;41612;51.994;5.880;2023-02-26T11:58:44;11.20;44.80
55711;DHT22;41612;51.994;5.880;2023-02-26T12:01:11;11.70;44.10
55711;DHT22;41612;51.994;5.880;2023-02-26T12:03:43;12.30;42.90
55711;DHT22;41612;51.994;5.880;2023-02-26T12:06:39;12.50;42.40
55711;DHT22;41612;51.994;5.880;2023-02-26T12:09:47;12.40;41.20
55711;DHT22;41612;51.994;5.880;2023-02-26T12:12:44;12.40;42.70
55711;DHT22;41612;51.994;5.880;2023-02-26T12:15:22;13.00;42.00
55711;DHT22;41612;51.994;5.880;2023-02-26T12:18:07;13.30;40.80
55711;DHT22;41612;51.994;5.880;2023-02-26T12:26:49;14.70;35.20
55711;DHT22;41612;51.994;5.880;2023-02-26T12:29:46;15.40;34.80
55711;DHT22;41612;51.994;5.880;2023-02-26T12:43:51;19.20;28.70
55711;DHT22;41612;51.994;5.880;2023-02-26T12:49:29;19.60;26.80
55711;DHT22;41612;51.994;5.880;2023-02-26T13:03:46;20.60;29.10
55711;DHT22;41612;51.994;5.880;2023-02-26T13:12:10;20.70;29.50
55711;DHT22;41612;51.994;5.880;2023-02-26T13:17:53;20.70;30.00
55711;DHT22;41612;51.994;5.880;2023-02-26T13:20:25;21.60;26.50
55711;DHT22;41612;51.994;5.880;2023-02-26T13:23:15;22.30;28.50
55711;DHT22;41612;51.994;5.880;2023-02-26T13:26:06;23.00;26.70
55711;DHT22;41612;51.994;5.880;2023-02-26T13:28:59;23.50;26.40
55711;DHT22;41612;51.994;5.880;2023-02-26T13:32:01;23.60;25.50
55711;DHT22;41612;51.994;5.880;2023-02-26T13:34:40;24.00;26.50
55711;DHT22;41612;51.994;5.880;2023-02-26T13:42:50;22.20;26.40
55711;DHT22;41612;51.994;5.880;2023-02-26T13:45:52;22.30;27.40
55711;DHT22;41612;51.994;5.880;2023-02-26T13:48:38;22.70;27.10
55711;DHT22;41612;51.994;5.880;2023-02-26T13:51:15;22.80;27.20
55711;DHT22;41612;51.994;5.880;2023-02-26T13:53:58;22.50;27.20
55711;DHT22;41612;51.994;5.880;2023-02-26T14:06:52;23.30;26.80
55711;DHT22;41612;51.994;5.880;2023-02-26T14:14:38;24.50;24.90
55711;DHT22;41612;51.994;5.880;2023-02-26T14:22:21;25.00;25.10
55711;DHT22;41612;51.994;5.880;2023-02-26T14:25:17;24.60;24.80
55711;DHT22;41612;51.994;5.880;2023-02-26T14:27:45;23.80;25.60
55711;DHT22;41612;51.994;5.880;2023-02-26T14:30:16;23.30;26.10
55711;DHT22;41612;51.994;5.880;2023-02-26T14:35:27;23.70;26.80
55711;DHT22;41612;51.994;5.880;2023-02-26T14:38:05;23.80;26.40
55711;DHT22;41612;51.994;5.880;2023-02-26T14:40:38;23.90;26.70
55711;DHT22;41612;51.994;5.880;2023-02-26T14:43:06;24.10;26.30
55711;DHT22;41612;51.994;5.880;2023-02-26T14:45:38;24.20;23.30
55711;DHT22;41612;51.994;5.880;2023-02-26T14:48:13;24.10;24.80
55711;DHT22;41612;51.994;5.880;2023-02-26T14:50:52;24.20;26.70
55711;DHT22;41612;51.994;5.880;2023-02-26T15:19:10;23.20;28.00
55711;DHT22;41612;51.994;5.880;2023-02-26T15:24:15;22.80;28.00
55711;DHT22;41612;51.994;5.880;2023-02-26T15:27:02;21.80;29.10
55711;DHT22;41612;51.994;5.880;2023-02-26T15:29:34;21.10;30.00
55711;DHT22;41612;51.994;5.880;2023-02-26T15:32:29;20.50;31.50
55711;DHT22;41612;51.994;5.880;2023-02-26T15:35:19;20.20;30.50
55711;DHT22;41612;51.994;5.880;2023-02-26T15:37:49;19.90;32.40
55711;DHT22;41612;51.994;5.880;2023-02-26T15:40:16;19.70;33.60
55711;DHT22;41612;51.994;5.880;2023-02-26T15:42:43;19.40;33.40
55711;DHT22;41612;51.994;5.880;2023-02-26T15:45:47;19.40;33.60
55711;DHT22;41612;51.994;5.880;2023-02-26T15:48:18;19.70;33.60
55711;DHT22;41612;51.994;5.880;2023-02-26T15:50:47;20.00;33.00
55711;DHT22;41612;51.994;5.880;2023-02-26T15:53:29;20.40;32.40
55711;DHT22;41612;51.994;5.880;2023-02-26T15:55:57;20.60;32.20
55711;DHT22;41612;51.994;5.880;2023-02-26T15:58:35;20.20;32.00
55711;DHT22;41612;51.994;5.880;2023-02-26T16:01:06;20.20;32.20
55711;DHT22;41612;51.994;5.880;2023-02-26T16:03:35;20.20;32.30
55711;DHT22;41612;51.994;5.880;2023-02-26T16:06:02;20.20;32.20
55711;DHT22;41612;51.994;5.880;2023-02-26T16:08:28;20.30;31.90
55711;DHT22;41612;51.994;5.880;2023-02-26T16:10:57;20.30;32.10
55711;DHT22;41612;51.994;5.880;2023-02-26T16:13:31;20.00;32.60
55711;DHT22;41612;51.994;5.880;2023-02-26T16:16:10;19.90;32.70
55711;DHT22;41612;51.994;5.880;2023-02-26T16:18:55;19.60;32.60
55711;DHT22;41612;51.994;5.880;2023-02-26T16:21:31;19.50;32.30
55711;DHT22;41612;51.994;5.880;2023-02-26T16:23:59;19.30;32.00
55711;DHT22;41612;51.994;5.880;2023-02-26T16:26:38;18.10;35.70
55711;DHT22;41612;51.994;5.880;2023-02-26T16:29:16;16.30;39.00
55711;DHT22;41612;51.994;5.880;2023-02-26T16:31:45;14.60;42.30
55711;DHT22;41612;51.994;5.880;2023-02-26T16:37:21;12.30;48.20
55711;DHT22;41612;51.994;5.880;2023-02-26T16:40:15;11.60;50.20
55711;DHT22;41612;51.994;5.880;2023-02-26T16:42:50;10.90;52.60
55711;DHT22;41612;51.994;5.880;2023-02-26T16:45:22;10.50;54.70
55711;DHT22;41612;51.994;5.880;2023-02-26T16:47:51;10.10;56.00
55711;DHT22;41612;51.994;5.880;2023-02-26T16:50:29;9.90;57.40
55711;DHT22;41612;51.994;5.880;2023-02-26T16:53:14;9.60;58.00
55711;DHT22;41612;51.994;5.880;2023-02-26T16:55:52;9.50;58.90
55711;DHT22;41612;51.994;5.880;2023-02-26T16:58:20;9.30;59.30
55711;DHT22;41612;51.994;5.880;2023-02-26T17:00:55;9.20;60.00
55711;DHT22;41612;51.994;5.880;2023-02-26T17:03:25;9.00;60.60
55711;DHT22;41612;51.994;5.880;2023-02-26T17:06:02;8.80;61.10
55711;DHT22;41612;51.994;5.880;2023-02-26T17:08:36;8.70;61.70
55711;DHT22;41612;51.994;5.880;2023-02-26T17:11:08;8.70;62.40
55711;DHT22;41612;51.994;5.880;2023-02-26T17:13:35;8.60;62.20
55711;DHT22;41612;51.994;5.880;2023-02-26T17:16:05;8.50;62.30
55711;DHT22;41612;51.994;5.880;2023-02-26T17:18:34;8.30;62.90
55711;DHT22;41612;51.994;5.880;2023-02-26T17:21:00;8.20;63.10
55711;DHT22;41612;51.994;5.880;2023-02-26T17:23:32;8.20;62.30
55711;DHT22;41612;51.994;5.880;2023-02-26T17:29:39;7.90;64.30
55711;DHT22;41612;51.994;5.880;2023-02-26T17:32:42;7.80;64.40
55711;DHT22;41612;51.994;5.880;2023-02-26T17:35:12;7.80;64.70
55711;DHT22;41612;51.994;5.880;2023-02-26T17:37:41;7.70;65.10
55711;DHT22;41612;51.994;5.880;2023-02-26T17:42:39;7.50;65.10
55711;DHT22;41612;51.994;5.880;2023-02-26T17:45:05;7.50;65.30
55711;DHT22;41612;51.994;5.880;2023-02-26T17:47:31;7.50;65.70
55711;DHT22;41612;51.994;5.880;2023-02-26T17:49:57;7.40;66.00
